sensor_id;sensor_type;location;lat;lon;timestamp;temperature;humidity
6810;DHT22;3443;48.812;9.112;2023-11-21T00:00:44;7.90;99.90
6810;DHT22;3443;48.812;9.112;2023-11-21T00:03:11;7.90;99.90
6810;DHT22;3443;48.812;9.112;2023-11-21T00:05:40;7.90;99.90
6810;DHT22;3443;48.812;9.112;2023-11-21T00:08:07;7.90;99.90
6810;DHT22;3443;48.812;9.112;2023-11-21T00:10:33;7.80;99.90
6810;DHT22;3443;48.812;9.112;2023-11-21T00:12:59;7.80;99.90
6810;DHT22;3443;48.812;9.112;2023-11-21T00:15:24;7.80;99.90
6810;DHT22;3443;48.812;9.112;2023-11-21T00:17:51;7.80;99.90
6810;DHT22;3443;48.812;9.112;2023-11-21T00:20:17;7.80;99.90
6810;DHT22;3443;48.812;9.112;2023-11-21T00:22:42;7.90;99.90
6810;DHT22;3443;48.812;9.112;2023-11-21T00:25:08;7.90;99.90
6810;DHT22;3443;48.812;9.112;2023-11-21T00:27:35;7.90;99.90
6810;DHT22;3443;48.812;9.112;2023-11-21T00:30:01;7.90;99.90
6810;DHT22;3443;48.812;9.112;2023-11-21T00:32:27;7.90;99.90
6810;DHT22;3443;48.812;9.112;2023-11-21T00:34:52;8.00;99.90
6810;DHT22;3443;48.812;9.112;2023-11-21T00:37:18;8.00;99.90
6810;DHT22;3443;48.812;9.112;2023-11-21T00:39:43;8.00;99.90
6810;DHT22;3443;48.812;9.112;2023-11-21T00:42:09;7.90;99.90
6810;DHT22;3443;48.812;9.112;2023-11-21T00:44:38;7.90;99.90
6810;DHT22;3443;48.812;9.112;2023-11-21T00:47:04;7.90;99.90
6810;DHT22;3443;48.812;9.112;2023-11-21T00:49:29;8.00;99.90
6810;DHT22;3443;48.812;9.112;2023-11-21T00:51:56;8.00;99.90
6810;DHT22;3443;48.812;9.112;2023-11-21T00:54:23;8.00;99.90
6810;DHT22;3443;48.812;9.112;2023-11-21T00:56:49;8.00;99.90
6810;DHT22;3443;48.812;9.112;2023-11-21T00:59:14;7.90;99.90
6810;DHT22;3443;48.812;9.112;2023-11-21T01:01:40;8.00;99.90
6810;DHT22;3443;48.812;9.112;2023-11-21T01:04:06;8.00;99.90
6810;DHT22;3443;48.812;9.112;2023-11-21T01:06:32;8.00;99.90
6810;DHT22;3443;48.812;9.112;2023-11-21T01:08:58;8.00;99.90
6810;DHT22;3443;48.812;9.112;2023-11-21T01:11:23;8.00;99.90
6810;DHT22;3443;48.812;9.112;2023-11-21T01:13:49;8.00;99.90
6810;DHT22;3443;48.812;9.112;2023-11-21T01:16:14;8.00;99.90
6810;DHT22;3443;48.812;9.112;2023-11-21T01:18:40;8.00;99.90
6810;DHT22;3443;48.812;9.112;2023-11-21T01:21:06;8.00;99.90
6810;DHT22;3443;48.812;9.112;2023-11-21T01:23:33;8.00;99.90
6810;DHT22;3443;48.812;9.112;2023-11-21T01:28:26;8.00;99.90
6810;DHT22;3443;48.812;9.112;2023-11-21T01:30:52;8.00;99.90
6810;DHT22;3443;48.812;9.112;2023-11-21T01:33:18;8.00;99.90
6810;DHT22;3443;48.812;9.112;2023-11-21T01:35:43;8.00;99.90
6810;DHT22;3443;48.812;9.112;2023-11-21T01:38:10;8.00;99.90
6810;DHT22;3443;48.812;9.112;2023-11-21T01:40:35;8.00;99.90
6810;DHT22;3443;48.812;9.112;2023-11-21T01:43:01;8.10;99.90
6810;DHT22;3443;48.812;9.112;2023-11-21T01:45:29;8.00;99.90
6810;DHT22;3443;48.812;9.112;2023-11-21T01:47:56;8.10;99.90
6810;DHT22;3443;48.812;9.112;2023-11-21T01:50:22;8.10;99.90
6810;DHT22;3443;48.812;9.112;2023-11-21T01:52:48;8.10;99.90
6810;DHT22;3443;48.812;9.112;2023-11-21T01:55:16;8.10;99.90
6810;DHT22;3443;48.812;9.112;2023-11-21T01:57:46;8.10;99.90
6810;DHT22;3443;48.812;9.112;2023-11-21T02:00:12;8.00;99.90
6810;DHT22;3443;48.812;9.112;2023-11-21T02:02:45;8.00;99.90
6810;DHT22;3443;48.812;9.112;2023-11-21T02:05:13;8.00;99.90
6810;DHT22;3443;48.812;9.112;2023-11-21T02:07:40;8.00;99.90
6810;DHT22;3443;48.812;9.112;2023-11-21T02:10:09;8.00;99.90
6810;DHT22;3443;48.812;9.112;2023-11-21T02:12:35;8.10;99.90
6810;DHT22;3443;48.812;9.112;2023-11-21T02:15:04;8.00;99.90
6810;DHT22;3443;48.812;9.112;2023-11-21T02:17:35;8.10;99.90
6810;DHT22;3443;48.812;9.112;2023-11-21T02:20:00;8.10;99.90
6810;DHT22;3443;48.812;9.112;2023-11-21T02:22:29;8.10;99.90
6810;DHT22;3443;48.812;9.112;2023-11-21T02:24:56;8.10;99.90
6810;DHT22;3443;48.812;9.112;2023-11-21T02:27:23;8.10;99.90
6810;DHT22;3443;48.812;9.112;2023-11-21T02:29:49;8.10;99.90
6810;DHT22;3443;48.812;9.112;2023-11-21T02:32:15;8.10;99.90
6810;DHT22;3443;48.812;9.112;2023-11-21T02:34:42;8.10;99.90
6810;DHT22;3443;48.812;9.112;2023-11-21T02:37:08;8.10;99.90
6810;DHT22;3443;48.812;9.112;2023-11-21T02:39:35;8.10;99.90
6810;DHT22;3443;48.812;9.112;2023-11-21T02:42:01;8.10;99.90
6810;DHT22;3443;48.812;9.112;2023-11-21T02:44:26;8.10;99.90
6810;DHT22;3443;48.812;9.112;2023-11-21T02:46:52;8.10;99.90
6810;DHT22;3443;48.812;9.112;2023-11-21T02:49:17;8.10;99.90
6810;DHT22;3443;48.812;9.112;2023-11-21T02:51:43;8.00;99.90
6810;DHT22;3443;48.812;9.112;2023-11-21T02:54:09;8.00;99.90
6810;DHT22;3443;48.812;9.112;2023-11-21T02:56:34;8.10;99.90
6810;DHT22;3443;48.812;9.112;2023-11-21T02:59:00;8.00;99.90
6810;DHT22;3443;48.812;9.112;2023-11-21T03:01:26;8.00;99.90
6810;DHT22;3443;48.812;9.112;2023-11-21T03:03:53;8.00;99.90
6810;DHT22;3443;48.812;9.112;2023-11-21T03:06:19;8.00;99.90
6810;DHT22;3443;48.812;9.112;2023-11-21T03:08:45;8.00;99.90
6810;DHT22;3443;48.812;9.112;2023-11-21T03:11:10;8.00;99.90
6810;DHT22;3443;48.812;9.112;2023-11-21T03:13:36;8.00;99.90
6810;DHT22;3443;48.812;9.112;2023-11-21T03:16:01;7.90;99.90
6810;DHT22;3443;48.812;9.112;2023-11-21T03:18:27;8.00;99.90
6810;DHT22;3443;48.812;9.112;2023-11-21T03:20:54;8.00;99.90
6810;DHT22;3443;48.812;9.112;2023-11-21T03:23:20;7.90;99.90
6810;DHT22;3443;48.812;9.112;2023-11-21T03:25:45;7.90;99.90
6810;DHT22;3443;48.812;9.112;2023-11-21T03:28:11;8.00;99.90
6810;DHT22;3443;48.812;9.112;2023-11-21T03:30:36;8.00;99.90
6810;DHT22;3443;48.812;9.112;2023-11-21T03:33:02;8.00;99.90
6810;DHT22;3443;48.812;9.112;2023-11-21T03:35:27;8.00;99.90
6810;DHT22;3443;48.812;9.112;2023-11-21T03:37:53;8.00;99.90
6810;DHT22;3443;48.812;9.112;2023-11-21T03:40:19;8.00;99.90
6810;DHT22;3443;48.812;9.112;2023-11-21T03:42:46;8.00;99.90
6810;DHT22;3443;48.812;9.112;2023-11-21T03:45:12;8.00;99.90
6810;DHT22;3443;48.812;9.112;2023-11-21T03:47:42;7.90;99.90
6810;DHT22;3443;48.812;9.112;2023-11-21T03:50:08;8.00;99.90
6810;DHT22;3443;48.812;9.112;2023-11-21T03:52:35;8.00;99.90
6810;DHT22;3443;48.812;9.112;2023-11-21T03:55:01;8.00;99.90
6810;DHT22;3443;48.812;9.112;2023-11-21T03:57:27;8.00;99.90
6810;DHT22;3443;48.812;9.112;2023-11-21T03:59:53;8.00;99.90
6810;DHT22;3443;48.812;9.112;2023-11-21T04:02:19;8.00;99.90
6810;DHT22;3443;48.812;9.112;2023-11-21T04:04:45;8.00;99.90
6810;DHT22;3443;48.812;9.112;2023-11-21T04:07:10;8.00;99.90
6810;DHT22;3443;48.812;9.112;2023-11-21T04:09:36;8.00;99.90
6810;DHT22;3443;48.812;9.112;2023-11-21T04:12:02;8.10;99.90
6810;DHT22;3443;48.812;9.112;2023-11-21T04:14:27;8.00;99.90
6810;DHT22;3443;48.812;9.112;2023-11-21T04:16:53;8.00;99.90
6810;DHT22;3443;48.812;9.112;2023-11-21T04:19:19;8.00;99.90
6810;DHT22;3443;48.812;9.112;2023-11-21T04:21:44;8.00;99.90
6810;DHT22;3443;48.812;9.112;2023-11-21T04:24:10;8.00;99.90
6810;DHT22;3443;48.812;9.112;2023-11-21T04:26:36;7.90;99.90
6810;DHT22;3443;48.812;9.112;2023-11-21T04:29:01;7.90;99.90
6810;DHT22;3443;48.812;9.112;2023-11-21T04:31:27;7.90;99.90
6810;DHT22;3443;48.812;9.112;2023-11-21T04:33:52;7.80;99.90
6810;DHT22;3443;48.812;9.112;2023-11-21T04:36:18;7.70;99.90
6810;DHT22;3443;48.812;9.112;2023-11-21T04:38:45;7.80;99.90
6810;DHT22;3443;48.812;9.112;2023-11-21T04:41:11;7.70;99.90
6810;DHT22;3443;48.812;9.112;2023-11-21T04:43:37;7.70;99.90
6810;DHT22;3443;48.812;9.112;2023-11-21T04:46:02;7.70;99.90
6810;DHT22;3443;48.812;9.112;2023-11-21T04:48:28;7.70;99.90
6810;DHT22;3443;48.812;9.112;2023-11-21T04:50:54;7.70;99.90
6810;DHT22;3443;48.812;9.112;2023-11-21T04:53:19;7.60;99.90
6810;DHT22;3443;48.812;9.112;2023-11-21T04:55:45;7.60;99.90
6810;DHT22;3443;48.812;9.112;2023-11-21T04:58:11;7.50;99.90
6810;DHT22;3443;48.812;9.112;2023-11-21T05:00:37;7.50;99.90
6810;DHT22;3443;48.812;9.112;2023-11-21T05:03:03;7.50;99.90
6810;DHT22;3443;48.812;9.112;2023-11-21T05:05:30;7.50;99.90
6810;DHT22;3443;48.812;9.112;2023-11-21T05:07:56;7.50;99.90
6810;DHT22;3443;48.812;9.112;2023-11-21T05:10:21;7.40;99.90
6810;DHT22;3443;48.812;9.112;2023-11-21T05:12:49;7.40;99.90
6810;DHT22;3443;48.812;9.112;2023-11-21T05:15:16;7.40;99.90
6810;DHT22;3443;48.812;9.112;2023-11-21T05:17:43;7.30;99.90
6810;DHT22;3443;48.812;9.112;2023-11-21T05:20:15;7.30;99.90
6810;DHT22;3443;48.812;9.112;2023-11-21T05:22:47;7.30;99.90
6810;DHT22;3443;48.812;9.112;2023-11-21T05:25:13;7.40;99.90
6810;DHT22;3443;48.812;9.112;2023-11-21T05:27:39;7.40;99.90
6810;DHT22;3443;48.812;9.112;2023-11-21T05:30:05;7.40;99.90
6810;DHT22;3443;48.812;9.112;2023-11-21T05:32:32;7.40;99.90
6810;DHT22;3443;48.812;9.112;2023-11-21T05:34:57;7.50;99.90
6810;DHT22;3443;48.812;9.112;2023-11-21T05:37:24;7.50;99.90
6810;DHT22;3443;48.812;9.112;2023-11-21T05:39:51;7.50;99.90
6810;DHT22;3443;48.812;9.112;2023-11-21T05:42:16;7.50;99.90
6810;DHT22;3443;48.812;9.112;2023-11-21T05:44:42;7.50;99.90
6810;DHT22;3443;48.812;9.112;2023-11-21T05:47:11;7.50;99.90
6810;DHT22;3443;48.812;9.112;2023-11-21T05:49:39;7.50;99.90
6810;DHT22;3443;48.812;9.112;2023-11-21T05:52:04;7.40;99.90
6810;DHT22;3443;48.812;9.112;2023-11-21T05:54:31;7.40;99.90
6810;DHT22;3443;48.812;9.112;2023-11-21T05:56:56;7.40;99.90
6810;DHT22;3443;48.812;9.112;2023-11-21T05:59:22;7.40;99.90
6810;DHT22;3443;48.812;9.112;2023-11-21T06:01:47;7.40;99.90
6810;DHT22;3443;48.812;9.112;2023-11-21T06:04:13;7.50;99.90
6810;DHT22;3443;48.812;9.112;2023-11-21T06:06:39;7.40;99.90
6810;DHT22;3443;48.812;9.112;2023-11-21T06:09:04;7.40;99.90
6810;DHT22;3443;48.812;9.112;2023-11-21T06:11:31;7.50;99.90
6810;DHT22;3443;48.812;9.112;2023-11-21T06:13:57;7.50;99.90
6810;DHT22;3443;48.812;9.112;2023-11-21T06:16:23;7.50;99.90
6810;DHT22;3443;48.812;9.112;2023-11-21T06:18:49;7.50;99.90
6810;DHT22;3443;48.812;9.112;2023-11-21T06:21:15;7.50;99.90
6810;DHT22;3443;48.812;9.112;2023-11-21T06:23:42;7.50;99.90
6810;DHT22;3443;48.812;9.112;2023-11-21T06:26:08;7.50;99.90
6810;DHT22;3443;48.812;9.112;2023-11-21T06:28:34;7.50;99.90
6810;DHT22;3443;48.812;9.112;2023-11-21T06:31:01;7.50;99.90
6810;DHT22;3443;48.812;9.112;2023-11-21T06:33:33;7.50;99.90
6810;DHT22;3443;48.812;9.112;2023-11-21T06:35:59;7.50;99.90
6810;DHT22;3443;48.812;9.112;2023-11-21T06:38:28;7.60;99.90
6810;DHT22;3443;48.812;9.112;2023-11-21T06:40:55;7.60;99.90
6810;DHT22;3443;48.812;9.112;2023-11-21T06:43:21;7.60;99.90
6810;DHT22;3443;48.812;9.112;2023-11-21T06:45:47;7.60;99.90
6810;DHT22;3443;48.812;9.112;2023-11-21T06:48:13;7.60;99.90
6810;DHT22;3443;48.812;9.112;2023-11-21T06:50:38;7.60;99.90
6810;DHT22;3443;48.812;9.112;2023-11-21T06:53:04;7.50;99.90
6810;DHT22;3443;48.812;9.112;2023-11-21T06:55:32;7.60;99.90
6810;DHT22;3443;48.812;9.112;2023-11-21T06:57:58;7.60;99.90
6810;DHT22;3443;48.812;9.112;2023-11-21T07:00:25;7.60;99.90
6810;DHT22;3443;48.812;9.112;2023-11-21T07:02:53;7.60;99.90
6810;DHT22;3443;48.812;9.112;2023-11-21T07:05:20;7.60;99.90
6810;DHT22;3443;48.812;9.112;2023-11-21T07:07:47;7.60;99.90
6810;DHT22;3443;48.812;9.112;2023-11-21T07:10:13;7.60;99.90
6810;DHT22;3443;48.812;9.112;2023-11-21T07:12:40;7.50;99.90
6810;DHT22;3443;48.812;9.112;2023-11-21T07:15:06;7.50;99.90
6810;DHT22;3443;48.812;9.112;2023-11-21T07:17:35;7.60;99.90
6810;DHT22;3443;48.812;9.112;2023-11-21T07:20:01;7.60;99.90
6810;DHT22;3443;48.812;9.112;2023-11-21T07:22:27;7.60;99.90
6810;DHT22;3443;48.812;9.112;2023-11-21T07:24:52;7.70;99.90
6810;DHT22;3443;48.812;9.112;2023-11-21T07:27:18;7.70;99.90
6810;DHT22;3443;48.812;9.112;2023-11-21T07:29:44;7.70;99.90
6810;DHT22;3443;48.812;9.112;2023-11-21T07:32:10;7.70;99.90
6810;DHT22;3443;48.812;9.112;2023-11-21T07:34:36;7.80;99.90
6810;DHT22;3443;48.812;9.112;2023-11-21T07:37:02;7.80;99.90
6810;DHT22;3443;48.812;9.112;2023-11-21T07:39:28;7.90;99.90
6810;DHT22;3443;48.812;9.112;2023-11-21T07:41:54;7.90;99.90
6810;DHT22;3443;48.812;9.112;2023-11-21T07:44:20;8.00;99.90
6810;DHT22;3443;48.812;9.112;2023-11-21T07:46:46;8.00;99.90
6810;DHT22;3443;48.812;9.112;2023-11-21T07:49:12;8.00;99.90
6810;DHT22;3443;48.812;9.112;2023-11-21T07:51:41;8.10;99.90
6810;DHT22;3443;48.812;9.112;2023-11-21T07:54:07;8.10;99.90
6810;DHT22;3443;48.812;9.112;2023-11-21T07:56:32;8.10;99.90
6810;DHT22;3443;48.812;9.112;2023-11-21T07:58:58;8.10;99.90
6810;DHT22;3443;48.812;9.112;2023-11-21T08:01:24;8.80;99.90
6810;DHT22;3443;48.812;9.112;2023-11-21T08:03:49;8.40;99.90
6810;DHT22;3443;48.812;9.112;2023-11-21T08:06:17;8.20;99.90
6810;DHT22;3443;48.812;9.112;2023-11-21T08:08:43;8.30;99.90
6810;DHT22;3443;48.812;9.112;2023-11-21T08:11:08;8.40;99.90
6810;DHT22;3443;48.812;9.112;2023-11-21T08:13:35;8.50;99.90
6810;DHT22;3443;48.812;9.112;2023-11-21T08:16:01;8.60;99.90
6810;DHT22;3443;48.812;9.112;2023-11-21T08:18:30;8.60;99.90
6810;DHT22;3443;48.812;9.112;2023-11-21T08:20:56;8.70;99.90
6810;DHT22;3443;48.812;9.112;2023-11-21T08:23:22;8.70;99.90
6810;DHT22;3443;48.812;9.112;2023-11-21T08:25:54;8.80;99.90
6810;DHT22;3443;48.812;9.112;2023-11-21T08:28:19;8.90;99.90
6810;DHT22;3443;48.812;9.112;2023-11-21T08:30:47;9.00;99.90
6810;DHT22;3443;48.812;9.112;2023-11-21T08:33:13;9.00;99.90
6810;DHT22;3443;48.812;9.112;2023-11-21T08:35:39;9.10;99.90
6810;DHT22;3443;48.812;9.112;2023-11-21T08:38:04;9.20;99.90
6810;DHT22;3443;48.812;9.112;2023-11-21T08:40:30;9.20;99.90
6810;DHT22;3443;48.812;9.112;2023-11-21T08:42:56;9.30;99.90
6810;DHT22;3443;48.812;9.112;2023-11-21T08:45:24;9.30;99.90
6810;DHT22;3443;48.812;9.112;2023-11-21T08:47:51;9.40;99.90
6810;DHT22;3443;48.812;9.112;2023-11-21T08:50:16;9.40;99.90
6810;DHT22;3443;48.812;9.112;2023-11-21T08:52:42;9.40;99.90
6810;DHT22;3443;48.812;9.112;2023-11-21T08:55:09;9.40;99.90
6810;DHT22;3443;48.812;9.112;2023-11-21T08:57:35;9.50;99.90
6810;DHT22;3443;48.812;9.112;2023-11-21T09:00:02;9.40;99.90
6810;DHT22;3443;48.812;9.112;2023-11-21T09:02:28;9.40;99.90
6810;DHT22;3443;48.812;9.112;2023-11-21T09:04:53;9.40;99.90
6810;DHT22;3443;48.812;9.112;2023-11-21T09:07:19;9.30;99.90
6810;DHT22;3443;48.812;9.112;2023-11-21T09:09:46;9.40;99.90
6810;DHT22;3443;48.812;9.112;2023-11-21T09:12:13;9.40;99.90
6810;DHT22;3443;48.812;9.112;2023-11-21T09:14:38;9.30;99.90
6810;DHT22;3443;48.812;9.112;2023-11-21T09:17:05;9.40;99.90
6810;DHT22;3443;48.812;9.112;2023-11-21T09:19:37;9.30;99.90
6810;DHT22;3443;48.812;9.112;2023-11-21T09:22:03;9.30;99.90
6810;DHT22;3443;48.812;9.112;2023-11-21T09:24:28;9.30;99.90
6810;DHT22;3443;48.812;9.112;2023-11-21T09:26:54;9.30;99.90
6810;DHT22;3443;48.812;9.112;2023-11-21T09:29:19;9.30;99.90
6810;DHT22;3443;48.812;9.112;2023-11-21T09:31:45;9.30;99.90
6810;DHT22;3443;48.812;9.112;2023-11-21T09:34:10;9.40;99.90
6810;DHT22;3443;48.812;9.112;2023-11-21T09:36:36;9.40;99.90
6810;DHT22;3443;48.812;9.112;2023-11-21T09:39:05;9.30;99.90
6810;DHT22;3443;48.812;9.112;2023-11-21T09:41:49;9.40;99.90
6810;DHT22;3443;48.812;9.112;2023-11-21T09:44:18;9.30;99.90
6810;DHT22;3443;48.812;9.112;2023-11-21T09:46:47;9.40;99.90
6810;DHT22;3443;48.812;9.112;2023-11-21T09:49:18;9.30;99.90
6810;DHT22;3443;48.812;9.112;2023-11-21T09:51:48;9.30;99.90
6810;DHT22;3443;48.812;9.112;2023-11-21T09:54:15;9.30;99.90
6810;DHT22;3443;48.812;9.112;2023-11-21T09:56:41;9.30;99.90
6810;DHT22;3443;48.812;9.112;2023-11-21T09:59:14;9.20;99.90
6810;DHT22;3443;48.812;9.112;2023-11-21T10:01:41;9.10;99.90
6810;DHT22;3443;48.812;9.112;2023-11-21T10:04:10;9.10;99.90
6810;DHT22;3443;48.812;9.112;2023-11-21T10:06:40;9.00;99.90
6810;DHT22;3443;48.812;9.112;2023-11-21T10:09:12;9.00;99.90
6810;DHT22;3443;48.812;9.112;2023-11-21T10:11:41;9.00;99.90
6810;DHT22;3443;48.812;9.112;2023-11-21T10:14:11;9.00;99.90
6810;DHT22;3443;48.812;9.112;2023-11-21T10:16:39;9.10;99.90
6810;DHT22;3443;48.812;9.112;2023-11-21T10:19:04;9.00;99.90
6810;DHT22;3443;48.812;9.112;2023-11-21T10:21:32;9.00;99.90
6810;DHT22;3443;48.812;9.112;2023-11-21T10:23:58;9.00;99.90
6810;DHT22;3443;48.812;9.112;2023-11-21T10:26:27;9.00;99.90
6810;DHT22;3443;48.812;9.112;2023-11-21T10:28:57;9.00;99.90
6810;DHT22;3443;48.812;9.112;2023-11-21T10:31:24;9.00;99.90
6810;DHT22;3443;48.812;9.112;2023-11-21T10:33:50;9.10;99.90
6810;DHT22;3443;48.812;9.112;2023-11-21T10:36:36;9.10;99.90
6810;DHT22;3443;48.812;9.112;2023-11-21T10:39:01;9.20;99.90
6810;DHT22;3443;48.812;9.112;2023-11-21T10:41:27;9.30;99.90
6810;DHT22;3443;48.812;9.112;2023-11-21T10:43:53;9.40;99.90
6810;DHT22;3443;48.812;9.112;2023-11-21T10:46:21;9.40;99.90
6810;DHT22;3443;48.812;9.112;2023-11-21T10:48:54;9.60;99.90
6810;DHT22;3443;48.812;9.112;2023-11-21T10:51:21;9.60;99.90
6810;DHT22;3443;48.812;9.112;2023-11-21T10:53:47;9.60;99.90
6810;DHT22;3443;48.812;9.112;2023-11-21T10:56:17;9.60;99.90
6810;DHT22;3443;48.812;9.112;2023-11-21T10:58:45;9.70;99.90
6810;DHT22;3443;48.812;9.112;2023-11-21T11:01:11;9.70;99.90
6810;DHT22;3443;48.812;9.112;2023-11-21T11:03:39;9.70;99.90
6810;DHT22;3443;48.812;9.112;2023-11-21T11:06:07;9.70;99.90
6810;DHT22;3443;48.812;9.112;2023-11-21T11:08:37;9.60;99.90
6810;DHT22;3443;48.812;9.112;2023-11-21T11:11:05;9.60;99.90
6810;DHT22;3443;48.812;9.112;2023-11-21T11:13:31;9.60;99.90
6810;DHT22;3443;48.812;9.112;2023-11-21T11:16:00;9.60;99.90
6810;DHT22;3443;48.812;9.112;2023-11-21T11:18:32;9.60;99.90
6810;DHT22;3443;48.812;9.112;2023-11-21T11:21:16;9.70;99.90
6810;DHT22;3443;48.812;9.112;2023-11-21T11:29:42;10.20;99.90
6810;DHT22;3443;48.812;9.112;2023-11-21T11:34:59;10.40;99.90
6810;DHT22;3443;48.812;9.112;2023-11-21T11:37:26;10.30;99.90
6810;DHT22;3443;48.812;9.112;2023-11-21T11:39:52;10.30;99.90
6810;DHT22;3443;48.812;9.112;2023-11-21T11:42:21;10.30;99.90
6810;DHT22;3443;48.812;9.112;2023-11-21T11:44:48;10.30;99.90
6810;DHT22;3443;48.812;9.112;2023-11-21T11:47:20;10.40;99.90
6810;DHT22;3443;48.812;9.112;2023-11-21T11:52:48;10.30;99.90
6810;DHT22;3443;48.812;9.112;2023-11-21T11:55:17;10.20;99.90
6810;DHT22;3443;48.812;9.112;2023-11-21T11:57:47;10.20;99.90
6810;DHT22;3443;48.812;9.112;2023-11-21T12:00:37;10.30;99.90
6810;DHT22;3443;48.812;9.112;2023-11-21T12:03:04;10.30;99.90
6810;DHT22;3443;48.812;9.112;2023-11-21T12:05:32;10.30;99.90
6810;DHT22;3443;48.812;9.112;2023-11-21T12:08:00;10.20;99.90
6810;DHT22;3443;48.812;9.112;2023-11-21T12:10:28;10.30;99.90
6810;DHT22;3443;48.812;9.112;2023-11-21T12:12:59;10.20;99.90
6810;DHT22;3443;48.812;9.112;2023-11-21T12:15:25;10.10;99.90
6810;DHT22;3443;48.812;9.112;2023-11-21T12:17:52;10.00;99.90
6810;DHT22;3443;48.812;9.112;2023-11-21T12:20:22;9.90;99.90
6810;DHT22;3443;48.812;9.112;2023-11-21T12:22:49;9.80;99.90
6810;DHT22;3443;48.812;9.112;2023-11-21T12:25:17;9.80;99.90
6810;DHT22;3443;48.812;9.112;2023-11-21T12:27:47;9.70;99.90
6810;DHT22;3443;48.812;9.112;2023-11-21T12:30:16;9.70;99.90
6810;DHT22;3443;48.812;9.112;2023-11-21T12:32:49;9.70;99.90
6810;DHT22;3443;48.812;9.112;2023-11-21T12:35:16;9.70;99.90
6810;DHT22;3443;48.812;9.112;2023-11-21T12:37:45;9.70;99.90
6810;DHT22;3443;48.812;9.112;2023-11-21T12:40:12;9.60;99.90
6810;DHT22;3443;48.812;9.112;2023-11-21T12:42:45;9.70;99.90
6810;DHT22;3443;48.812;9.112;2023-11-21T12:47:44;9.80;99.90
6810;DHT22;3443;48.812;9.112;2023-11-21T12:50:10;9.80;99.90
6810;DHT22;3443;48.812;9.112;2023-11-21T12:52:44;9.80;99.90
6810;DHT22;3443;48.812;9.112;2023-11-21T12:55:17;9.90;99.90
6810;DHT22;3443;48.812;9.112;2023-11-21T12:57:52;10.00;99.90
6810;DHT22;3443;48.812;9.112;2023-11-21T13:00:27;10.20;99.90
6810;DHT22;3443;48.812;9.112;2023-11-21T13:02:57;10.30;99.90
6810;DHT22;3443;48.812;9.112;2023-11-21T13:05:28;10.30;99.90
6810;DHT22;3443;48.812;9.112;2023-11-21T13:07:57;10.00;99.90
6810;DHT22;3443;48.812;9.112;2023-11-21T13:10:26;9.70;99.90
6810;DHT22;3443;48.812;9.112;2023-11-21T13:12:57;9.50;99.90
6810;DHT22;3443;48.812;9.112;2023-11-21T13:15:24;9.40;99.90
6810;DHT22;3443;48.812;9.112;2023-11-21T13:17:50;9.20;99.90
6810;DHT22;3443;48.812;9.112;2023-11-21T13:20:16;9.20;99.90
6810;DHT22;3443;48.812;9.112;2023-11-21T13:22:49;9.00;99.90
6810;DHT22;3443;48.812;9.112;2023-11-21T13:25:16;9.00;99.90
6810;DHT22;3443;48.812;9.112;2023-11-21T13:27:45;9.00;99.90
6810;DHT22;3443;48.812;9.112;2023-11-21T13:30:13;8.90;99.90
6810;DHT22;3443;48.812;9.112;2023-11-21T13:32:41;8.90;99.90
6810;DHT22;3443;48.812;9.112;2023-11-21T13:35:08;8.90;99.90
6810;DHT22;3443;48.812;9.112;2023-11-21T13:37:37;8.90;99.90
6810;DHT22;3443;48.812;9.112;2023-11-21T13:40:03;8.90;99.90
6810;DHT22;3443;48.812;9.112;2023-11-21T13:42:35;9.00;99.90
6810;DHT22;3443;48.812;9.112;2023-11-21T13:45:00;9.00;99.90
6810;DHT22;3443;48.812;9.112;2023-11-21T13:47:26;9.00;99.90
6810;DHT22;3443;48.812;9.112;2023-11-21T13:49:55;9.10;99.90
6810;DHT22;3443;48.812;9.112;2023-11-21T13:52:20;9.00;99.90
6810;DHT22;3443;48.812;9.112;2023-11-21T13:54:48;9.00;99.90
6810;DHT22;3443;48.812;9.112;2023-11-21T13:57:13;9.00;99.90
6810;DHT22;3443;48.812;9.112;2023-11-21T13:59:39;8.90;99.90
6810;DHT22;3443;48.812;9.112;2023-11-21T14:02:04;8.90;99.90
6810;DHT22;3443;48.812;9.112;2023-11-21T14:04:43;9.00;99.90
6810;DHT22;3443;48.812;9.112;2023-11-21T14:07:20;9.00;99.90
6810;DHT22;3443;48.812;9.112;2023-11-21T14:09:57;9.00;99.90
6810;DHT22;3443;48.812;9.112;2023-11-21T14:12:24;9.00;99.90
6810;DHT22;3443;48.812;9.112;2023-11-21T14:14:49;9.00;99.90
6810;DHT22;3443;48.812;9.112;2023-11-21T14:17:15;9.00;99.90
6810;DHT22;3443;48.812;9.112;2023-11-21T14:19:40;9.00;99.90
6810;DHT22;3443;48.812;9.112;2023-11-21T14:22:10;9.00;99.90
6810;DHT22;3443;48.812;9.112;2023-11-21T14:24:35;9.00;99.90
6810;DHT22;3443;48.812;9.112;2023-11-21T14:27:02;9.00;99.90
6810;DHT22;3443;48.812;9.112;2023-11-21T14:29:29;9.00;99.90
6810;DHT22;3443;48.812;9.112;2023-11-21T14:31:55;9.00;99.90
6810;DHT22;3443;48.812;9.112;2023-11-21T14:34:23;9.00;99.90
6810;DHT22;3443;48.812;9.112;2023-11-21T14:36:50;9.00;99.90
6810;DHT22;3443;48.812;9.112;2023-11-21T14:39:15;9.00;99.90
6810;DHT22;3443;48.812;9.112;2023-11-21T14:41:53;9.00;99.90
6810;DHT22;3443;48.812;9.112;2023-11-21T14:44:21;9.00;99.90
6810;DHT22;3443;48.812;9.112;2023-11-21T14:46:52;9.00;99.90
6810;DHT22;3443;48.812;9.112;2023-11-21T14:49:19;8.90;99.90
6810;DHT22;3443;48.812;9.112;2023-11-21T14:51:48;8.90;99.90
6810;DHT22;3443;48.812;9.112;2023-11-21T14:54:37;8.90;99.90
6810;DHT22;3443;48.812;9.112;2023-11-21T14:57:07;8.90;99.90
6810;DHT22;3443;48.812;9.112;2023-11-21T14:59:37;8.90;99.90
6810;DHT22;3443;48.812;9.112;2023-11-21T15:02:03;8.90;99.90
6810;DHT22;3443;48.812;9.112;2023-11-21T15:04:43;8.90;99.90
6810;DHT22;3443;48.812;9.112;2023-11-21T15:07:10;8.90;99.90
6810;DHT22;3443;48.812;9.112;2023-11-21T15:09:38;8.80;99.90
6810;DHT22;3443;48.812;9.112;2023-11-21T15:12:08;8.80;99.90
6810;DHT22;3443;48.812;9.112;2023-11-21T15:14:42;8.80;99.90
6810;DHT22;3443;48.812;9.112;2023-11-21T15:17:09;8.80;99.90
6810;DHT22;3443;48.812;9.112;2023-11-21T15:19:34;8.70;99.90
6810;DHT22;3443;48.812;9.112;2023-11-21T15:22:01;8.80;99.90
6810;DHT22;3443;48.812;9.112;2023-11-21T15:24:27;8.80;99.90
6810;DHT22;3443;48.812;9.112;2023-11-21T15:26:53;8.70;99.90
6810;DHT22;3443;48.812;9.112;2023-11-21T15:29:19;8.80;99.90
6810;DHT22;3443;48.812;9.112;2023-11-21T15:31:46;8.80;99.90
6810;DHT22;3443;48.812;9.112;2023-11-21T15:34:15;8.70;99.90
6810;DHT22;3443;48.812;9.112;2023-11-21T15:36:40;8.70;99.90
6810;DHT22;3443;48.812;9.112;2023-11-21T15:39:06;8.70;99.90
6810;DHT22;3443;48.812;9.112;2023-11-21T15:41:35;8.70;99.90
6810;DHT22;3443;48.812;9.112;2023-11-21T15:44:01;8.70;99.90
6810;DHT22;3443;48.812;9.112;2023-11-21T15:46:26;8.70;99.90
6810;DHT22;3443;48.812;9.112;2023-11-21T15:48:52;8.60;99.90
6810;DHT22;3443;48.812;9.112;2023-11-21T15:51:20;8.60;99.90
6810;DHT22;3443;48.812;9.112;2023-11-21T15:53:46;8.60;99.90
6810;DHT22;3443;48.812;9.112;2023-11-21T15:56:11;8.60;99.90
6810;DHT22;3443;48.812;9.112;2023-11-21T15:58:41;8.50;99.90
6810;DHT22;3443;48.812;9.112;2023-11-21T16:01:09;8.50;99.90
6810;DHT22;3443;48.812;9.112;2023-11-21T16:03:35;8.50;99.90
6810;DHT22;3443;48.812;9.112;2023-11-21T16:06:01;8.50;99.90
6810;DHT22;3443;48.812;9.112;2023-11-21T16:08:28;8.50;99.90
6810;DHT22;3443;48.812;9.112;2023-11-21T16:10:54;8.50;99.90
6810;DHT22;3443;48.812;9.112;2023-11-21T16:13:20;8.50;99.90
6810;DHT22;3443;48.812;9.112;2023-11-21T16:15:46;8.40;99.90
6810;DHT22;3443;48.812;9.112;2023-11-21T16:18:12;8.50;99.90
6810;DHT22;3443;48.812;9.112;2023-11-21T16:20:37;8.50;99.90
6810;DHT22;3443;48.812;9.112;2023-11-21T16:23:03;8.40;99.90
6810;DHT22;3443;48.812;9.112;2023-11-21T16:25:29;8.40;99.90
6810;DHT22;3443;48.812;9.112;2023-11-21T16:27:54;8.40;99.90
6810;DHT22;3443;48.812;9.112;2023-11-21T16:30:21;8.30;99.90
6810;DHT22;3443;48.812;9.112;2023-11-21T16:32:49;8.20;99.90